sensor_id;sensor_type;location;lat;lon;timestamp;P1;durP1;ratioP1;P2;durP2;ratioP2
81378;SDS011;70830;42.290;-71.354;2024-03-02T00:00:18;4.90;;;4.50;;
81378;SDS011;70830;42.290;-71.354;2024-03-02T00:02:47;5.35;;;4.38;;
81378;SDS011;70830;42.290;-71.354;2024-03-02T00:05:15;7.80;;;4.72;;
81378;SDS011;70830;42.290;-71.354;2024-03-02T00:07:44;6.75;;;4.38;;
81378;SDS011;70830;42.290;-71.354;2024-03-02T00:10:13;4.70;;;4.30;;
81378;SDS011;70830;42.290;-71.354;2024-03-02T00:12:45;6.65;;;4.10;;
81378;SDS011;70830;42.290;-71.354;2024-03-02T00:17:56;7.90;;;4.30;;
81378;SDS011;70830;42.290;-71.354;2024-03-02T00:20:24;4.97;;;4.57;;
81378;SDS011;70830;42.290;-71.354;2024-03-02T00:22:58;5.38;;;4.65;;
81378;SDS011;70830;42.290;-71.354;2024-03-02T00:28:10;6.32;;;4.68;;
81378;SDS011;70830;42.290;-71.354;2024-03-02T00:30:52;5.15;;;4.65;;
81378;SDS011;70830;42.290;-71.354;2024-03-02T00:33:26;5.07;;;4.15;;
81378;SDS011;70830;42.290;-71.354;2024-03-02T00:35:55;4.93;;;3.70;;
81378;SDS011;70830;42.290;-71.354;2024-03-02T00:38:22;9.07;;;3.67;;
81378;SDS011;70830;42.290;-71.354;2024-03-02T00:40:48;4.65;;;4.25;;
81378;SDS011;70830;42.290;-71.354;2024-03-02T00:46:18;5.28;;;4.40;;
81378;SDS011;70830;42.290;-71.354;2024-03-02T00:48:48;9.32;;;4.60;;
81378;SDS011;70830;42.290;-71.354;2024-03-02T00:51:18;11.15;;;5.07;;
81378;SDS011;70830;42.290;-71.354;2024-03-02T00:53:44;5.95;;;4.30;;
81378;SDS011;70830;42.290;-71.354;2024-03-02T00:56:10;6.90;;;3.92;;
81378;SDS011;70830;42.290;-71.354;2024-03-02T00:58:37;4.50;;;4.10;;
81378;SDS011;70830;42.290;-71.354;2024-03-02T01:01:03;5.32;;;3.65;;
81378;SDS011;70830;42.290;-71.354;2024-03-02T01:03:30;7.45;;;3.70;;
81378;SDS011;70830;42.290;-71.354;2024-03-02T01:05:57;5.57;;;4.20;;
81378;SDS011;70830;42.290;-71.354;2024-03-02T01:08:23;6.28;;;4.50;;
81378;SDS011;70830;42.290;-71.354;2024-03-02T01:10:52;5.78;;;4.22;;
81378;SDS011;70830;42.290;-71.354;2024-03-02T01:13:18;4.40;;;2.88;;
81378;SDS011;70830;42.290;-71.354;2024-03-02T01:15:44;5.80;;;3.05;;
81378;SDS011;70830;42.290;-71.354;2024-03-02T01:18:09;3.72;;;2.72;;
81378;SDS011;70830;42.290;-71.354;2024-03-02T01:20:35;7.63;;;5.30;;
81378;SDS011;70830;42.290;-71.354;2024-03-02T01:23:01;4.70;;;3.75;;
81378;SDS011;70830;42.290;-71.354;2024-03-02T01:25:28;4.70;;;4.15;;
81378;SDS011;70830;42.290;-71.354;2024-03-02T01:27:54;5.60;;;3.47;;
81378;SDS011;70830;42.290;-71.354;2024-03-02T01:30:19;3.92;;;3.00;;
81378;SDS011;70830;42.290;-71.354;2024-03-02T01:32:46;6.10;;;2.78;;
81378;SDS011;70830;42.290;-71.354;2024-03-02T01:35:12;4.50;;;3.55;;
81378;SDS011;70830;42.290;-71.354;2024-03-02T01:37:40;4.72;;;3.53;;
81378;SDS011;70830;42.290;-71.354;2024-03-02T01:40:06;5.05;;;3.10;;
81378;SDS011;70830;42.290;-71.354;2024-03-02T01:42:37;4.38;;;1.95;;
81378;SDS011;70830;42.290;-71.354;2024-03-02T01:45:07;2.97;;;1.50;;
81378;SDS011;70830;42.290;-71.354;2024-03-02T01:47:34;4.43;;;1.90;;
81378;SDS011;70830;42.290;-71.354;2024-03-02T01:50:00;4.05;;;1.73;;
81378;SDS011;70830;42.290;-71.354;2024-03-02T01:52:27;3.88;;;2.03;;
81378;SDS011;70830;42.290;-71.354;2024-03-02T01:54:53;4.40;;;1.90;;
81378;SDS011;70830;42.290;-71.354;2024-03-02T01:57:19;3.65;;;1.60;;
81378;SDS011;70830;42.290;-71.354;2024-03-02T01:59:45;4.93;;;1.70;;
81378;SDS011;70830;42.290;-71.354;2024-03-02T02:02:13;31.52;;;5.70;;
81378;SDS011;70830;42.290;-71.354;2024-03-02T02:04:40;5.18;;;1.70;;
81378;SDS011;70830;42.290;-71.354;2024-03-02T02:07:05;4.40;;;1.75;;
81378;SDS011;70830;42.290;-71.354;2024-03-02T02:09:31;9.45;;;2.70;;
81378;SDS011;70830;42.290;-71.354;2024-03-02T02:11:57;5.13;;;2.22;;
81378;SDS011;70830;42.290;-71.354;2024-03-02T02:14:24;8.43;;;3.72;;
81378;SDS011;70830;42.290;-71.354;2024-03-02T02:16:50;3.83;;;2.13;;
81378;SDS011;70830;42.290;-71.354;2024-03-02T02:19:17;5.43;;;2.05;;
81378;SDS011;70830;42.290;-71.354;2024-03-02T02:21:43;4.85;;;2.60;;
81378;SDS011;70830;42.290;-71.354;2024-03-02T02:24:09;3.63;;;2.13;;
81378;SDS011;70830;42.290;-71.354;2024-03-02T02:26:35;7.70;;;1.80;;
81378;SDS011;70830;42.290;-71.354;2024-03-02T02:29:01;5.78;;;2.17;;
81378;SDS011;70830;42.290;-71.354;2024-03-02T02:31:36;4.63;;;2.00;;
81378;SDS011;70830;42.290;-71.354;2024-03-02T02:34:03;6.47;;;1.60;;
81378;SDS011;70830;42.290;-71.354;2024-03-02T02:36:28;6.80;;;1.95;;
81378;SDS011;70830;42.290;-71.354;2024-03-02T02:38:54;4.60;;;1.77;;
81378;SDS011;70830;42.290;-71.354;2024-03-02T02:41:21;5.65;;;2.00;;
81378;SDS011;70830;42.290;-71.354;2024-03-02T02:43:46;5.00;;;2.72;;
81378;SDS011;70830;42.290;-71.354;2024-03-02T02:46:13;5.15;;;2.47;;
81378;SDS011;70830;42.290;-71.354;2024-03-02T02:48:38;4.68;;;2.83;;
81378;SDS011;70830;42.290;-71.354;2024-03-02T02:51:04;3.53;;;2.38;;
81378;SDS011;70830;42.290;-71.354;2024-03-02T02:53:30;5.53;;;3.42;;
81378;SDS011;70830;42.290;-71.354;2024-03-02T02:55:56;8.57;;;7.88;;
81378;SDS011;70830;42.290;-71.354;2024-03-02T02:58:22;6.10;;;4.22;;
81378;SDS011;70830;42.290;-71.354;2024-03-02T03:00:48;3.40;;;2.53;;
81378;SDS011;70830;42.290;-71.354;2024-03-02T03:03:13;5.07;;;2.70;;
81378;SDS011;70830;42.290;-71.354;2024-03-02T03:05:40;7.22;;;4.30;;
81378;SDS011;70830;42.290;-71.354;2024-03-02T03:08:05;7.78;;;5.30;;
81378;SDS011;70830;42.290;-71.354;2024-03-02T03:10:31;8.02;;;5.55;;
81378;SDS011;70830;42.290;-71.354;2024-03-02T03:12:58;5.20;;;4.70;;
81378;SDS011;70830;42.290;-71.354;2024-03-02T03:15:24;8.32;;;4.70;;
81378;SDS011;70830;42.290;-71.354;2024-03-02T03:17:50;6.03;;;3.58;;
81378;SDS011;70830;42.290;-71.354;2024-03-02T03:20:16;4.80;;;4.10;;
81378;SDS011;70830;42.290;-71.354;2024-03-02T03:22:42;6.00;;;2.17;;
81378;SDS011;70830;42.290;-71.354;2024-03-02T03:25:08;4.30;;;1.70;;
81378;SDS011;70830;42.290;-71.354;2024-03-02T03:27:34;4.00;;;1.73;;
81378;SDS011;70830;42.290;-71.354;2024-03-02T03:30:00;4.28;;;1.88;;
81378;SDS011;70830;42.290;-71.354;2024-03-02T03:32:27;5.55;;;2.67;;
81378;SDS011;70830;42.290;-71.354;2024-03-02T03:34:53;13.20;;;2.30;;
81378;SDS011;70830;42.290;-71.354;2024-03-02T03:37:19;6.35;;;1.95;;
81378;SDS011;70830;42.290;-71.354;2024-03-02T03:39:45;4.05;;;1.83;;
81378;SDS011;70830;42.290;-71.354;2024-03-02T03:42:11;4.82;;;2.10;;
81378;SDS011;70830;42.290;-71.354;2024-03-02T03:44:37;6.80;;;3.10;;
81378;SDS011;70830;42.290;-71.354;2024-03-02T03:47:04;5.75;;;2.00;;
81378;SDS011;70830;42.290;-71.354;2024-03-02T03:49:30;7.00;;;3.08;;
81378;SDS011;70830;42.290;-71.354;2024-03-02T03:51:56;7.05;;;2.70;;
81378;SDS011;70830;42.290;-71.354;2024-03-02T03:54:22;6.07;;;3.47;;
81378;SDS011;70830;42.290;-71.354;2024-03-02T03:56:47;7.88;;;3.63;;
81378;SDS011;70830;42.290;-71.354;2024-03-02T03:59:13;6.10;;;2.53;;
81378;SDS011;70830;42.290;-71.354;2024-03-02T04:01:39;4.95;;;2.63;;
81378;SDS011;70830;42.290;-71.354;2024-03-02T04:04:05;4.60;;;2.40;;
81378;SDS011;70830;42.290;-71.354;2024-03-02T04:06:31;5.60;;;1.95;;
81378;SDS011;70830;42.290;-71.354;2024-03-02T04:08:57;6.50;;;1.98;;
81378;SDS011;70830;42.290;-71.354;2024-03-02T04:11:23;4.95;;;2.10;;
81378;SDS011;70830;42.290;-71.354;2024-03-02T04:13:48;5.32;;;2.00;;
81378;SDS011;70830;42.290;-71.354;2024-03-02T04:16:14;4.60;;;2.60;;
81378;SDS011;70830;42.290;-71.354;2024-03-02T04:18:40;7.75;;;2.13;;
81378;SDS011;70830;42.290;-71.354;2024-03-02T04:21:06;5.68;;;2.40;;
81378;SDS011;70830;42.290;-71.354;2024-03-02T04:23:32;4.93;;;1.95;;
81378;SDS011;70830;42.290;-71.354;2024-03-02T04:25:58;5.65;;;2.28;;
81378;SDS011;70830;42.290;-71.354;2024-03-02T04:28:24;4.22;;;2.10;;
81378;SDS011;70830;42.290;-71.354;2024-03-02T04:30:50;4.43;;;1.83;;
81378;SDS011;70830;42.290;-71.354;2024-03-02T04:33:16;5.90;;;2.40;;
81378;SDS011;70830;42.290;-71.354;2024-03-02T04:35:42;7.82;;;2.50;;
81378;SDS011;70830;42.290;-71.354;2024-03-02T04:38:08;5.57;;;2.22;;
81378;SDS011;70830;42.290;-71.354;2024-03-02T04:40:34;4.45;;;2.15;;
81378;SDS011;70830;42.290;-71.354;2024-03-02T04:42:59;4.35;;;2.08;;
81378;SDS011;70830;42.290;-71.354;2024-03-02T04:45:26;7.03;;;2.17;;
81378;SDS011;70830;42.290;-71.354;2024-03-02T04:47:52;5.32;;;2.65;;
81378;SDS011;70830;42.290;-71.354;2024-03-02T04:50:18;15.23;;;3.60;;
81378;SDS011;70830;42.290;-71.354;2024-03-02T04:52:44;4.93;;;2.25;;
81378;SDS011;70830;42.290;-71.354;2024-03-02T04:55:10;3.97;;;2.42;;
81378;SDS011;70830;42.290;-71.354;2024-03-02T04:57:55;4.15;;;2.83;;
81378;SDS011;70830;42.290;-71.354;2024-03-02T05:00:21;6.82;;;2.75;;
81378;SDS011;70830;42.290;-71.354;2024-03-02T05:02:47;5.43;;;3.00;;
81378;SDS011;70830;42.290;-71.354;2024-03-02T05:05:13;6.32;;;2.97;;
81378;SDS011;70830;42.290;-71.354;2024-03-02T05:07:40;4.93;;;2.80;;
81378;SDS011;70830;42.290;-71.354;2024-03-02T05:10:07;5.38;;;3.17;;
81378;SDS011;70830;42.290;-71.354;2024-03-02T05:12:34;6.28;;;3.38;;
81378;SDS011;70830;42.290;-71.354;2024-03-02T05:15:09;10.95;;;3.45;;
81378;SDS011;70830;42.290;-71.354;2024-03-02T05:17:43;5.32;;;2.97;;
81378;SDS011;70830;42.290;-71.354;2024-03-02T05:20:09;4.60;;;2.47;;
81378;SDS011;70830;42.290;-71.354;2024-03-02T05:22:36;6.28;;;2.72;;
81378;SDS011;70830;42.290;-71.354;2024-03-02T05:25:03;6.85;;;3.28;;
81378;SDS011;70830;42.290;-71.354;2024-03-02T05:27:29;7.32;;;3.05;;
81378;SDS011;70830;42.290;-71.354;2024-03-02T05:29:58;5.53;;;3.00;;
81378;SDS011;70830;42.290;-71.354;2024-03-02T05:32:24;3.38;;;2.80;;
81378;SDS011;70830;42.290;-71.354;2024-03-02T05:34:50;6.03;;;2.97;;
81378;SDS011;70830;42.290;-71.354;2024-03-02T05:37:16;4.88;;;2.42;;
81378;SDS011;70830;42.290;-71.354;2024-03-02T05:39:42;8.07;;;3.58;;
81378;SDS011;70830;42.290;-71.354;2024-03-02T05:42:09;4.63;;;2.80;;
81378;SDS011;70830;42.290;-71.354;2024-03-02T05:44:38;6.20;;;2.90;;
81378;SDS011;70830;42.290;-71.354;2024-03-02T05:47:04;7.47;;;3.67;;
81378;SDS011;70830;42.290;-71.354;2024-03-02T05:49:30;7.05;;;2.83;;
81378;SDS011;70830;42.290;-71.354;2024-03-02T05:51:56;6.57;;;2.78;;
81378;SDS011;70830;42.290;-71.354;2024-03-02T05:54:21;5.35;;;2.75;;
81378;SDS011;70830;42.290;-71.354;2024-03-02T05:56:47;5.18;;;2.90;;
81378;SDS011;70830;42.290;-71.354;2024-03-02T05:59:13;7.45;;;2.92;;
81378;SDS011;70830;42.290;-71.354;2024-03-02T06:01:41;6.60;;;2.60;;
81378;SDS011;70830;42.290;-71.354;2024-03-02T06:04:12;6.95;;;3.25;;
81378;SDS011;70830;42.290;-71.354;2024-03-02T06:06:42;6.53;;;5.03;;
81378;SDS011;70830;42.290;-71.354;2024-03-02T06:09:08;5.30;;;4.22;;
81378;SDS011;70830;42.290;-71.354;2024-03-02T06:11:37;4.93;;;4.32;;
81378;SDS011;70830;42.290;-71.354;2024-03-02T06:14:04;5.53;;;2.50;;
81378;SDS011;70830;42.290;-71.354;2024-03-02T06:16:31;4.75;;;2.83;;
81378;SDS011;70830;42.290;-71.354;2024-03-02T06:18:58;7.47;;;2.60;;
81378;SDS011;70830;42.290;-71.354;2024-03-02T06:21:24;2.97;;;2.55;;
81378;SDS011;70830;42.290;-71.354;2024-03-02T06:23:51;7.75;;;2.67;;
81378;SDS011;70830;42.290;-71.354;2024-03-02T06:26:17;5.00;;;2.50;;
81378;SDS011;70830;42.290;-71.354;2024-03-02T06:28:43;4.82;;;2.53;;
81378;SDS011;70830;42.290;-71.354;2024-03-02T06:31:09;6.05;;;3.25;;
81378;SDS011;70830;42.290;-71.354;2024-03-02T06:33:35;6.97;;;2.40;;
81378;SDS011;70830;42.290;-71.354;2024-03-02T06:36:02;7.07;;;2.20;;
81378;SDS011;70830;42.290;-71.354;2024-03-02T06:38:28;5.10;;;2.30;;
81378;SDS011;70830;42.290;-71.354;2024-03-02T06:40:54;5.38;;;2.38;;
81378;SDS011;70830;42.290;-71.354;2024-03-02T06:43:23;4.72;;;2.10;;
81378;SDS011;70830;42.290;-71.354;2024-03-02T06:45:49;8.95;;;1.92;;
81378;SDS011;70830;42.290;-71.354;2024-03-02T06:48:16;7.38;;;2.60;;
81378;SDS011;70830;42.290;-71.354;2024-03-02T06:50:48;5.30;;;3.45;;
81378;SDS011;70830;42.290;-71.354;2024-03-02T06:53:15;9.65;;;4.80;;
81378;SDS011;70830;42.290;-71.354;2024-03-02T06:55:44;6.30;;;4.15;;
81378;SDS011;70830;42.290;-71.354;2024-03-02T06:58:11;6.82;;;4.22;;
81378;SDS011;70830;42.290;-71.354;2024-03-02T07:00:43;6.80;;;4.30;;
81378;SDS011;70830;42.290;-71.354;2024-03-02T07:03:12;4.35;;;3.90;;
81378;SDS011;70830;42.290;-71.354;2024-03-02T07:05:38;10.57;;;4.43;;
81378;SDS011;70830;42.290;-71.354;2024-03-02T07:08:05;8.70;;;4.70;;
81378;SDS011;70830;42.290;-71.354;2024-03-02T07:10:31;7.93;;;4.10;;
81378;SDS011;70830;42.290;-71.354;2024-03-02T07:12:57;6.10;;;4.07;;
81378;SDS011;70830;42.290;-71.354;2024-03-02T07:15:23;8.23;;;4.05;;
81378;SDS011;70830;42.290;-71.354;2024-03-02T07:18:00;5.95;;;4.25;;
81378;SDS011;70830;42.290;-71.354;2024-03-02T07:20:26;3.95;;;2.40;;
81378;SDS011;70830;42.290;-71.354;2024-03-02T07:22:53;3.55;;;1.67;;
81378;SDS011;70830;42.290;-71.354;2024-03-02T07:25:19;5.40;;;2.13;;
81378;SDS011;70830;42.290;-71.354;2024-03-02T07:27:44;4.95;;;1.60;;
81378;SDS011;70830;42.290;-71.354;2024-03-02T07:30:13;5.07;;;2.00;;
81378;SDS011;70830;42.290;-71.354;2024-03-02T07:32:41;5.35;;;2.13;;
81378;SDS011;70830;42.290;-71.354;2024-03-02T07:35:11;7.53;;;1.88;;
81378;SDS011;70830;42.290;-71.354;2024-03-02T07:37:38;2.85;;;1.40;;
81378;SDS011;70830;42.290;-71.354;2024-03-02T07:40:04;4.68;;;1.73;;
81378;SDS011;70830;42.290;-71.354;2024-03-02T07:42:34;5.63;;;1.77;;
81378;SDS011;70830;42.290;-71.354;2024-03-02T07:45:00;8.57;;;2.33;;
81378;SDS011;70830;42.290;-71.354;2024-03-02T07:47:26;3.25;;;1.60;;
81378;SDS011;70830;42.290;-71.354;2024-03-02T07:49:52;3.30;;;1.67;;
81378;SDS011;70830;42.290;-71.354;2024-03-02T07:52:18;4.95;;;1.55;;
81378;SDS011;70830;42.290;-71.354;2024-03-02T07:54:44;9.07;;;2.90;;
81378;SDS011;70830;42.290;-71.354;2024-03-02T07:57:10;5.32;;;1.83;;
81378;SDS011;70830;42.290;-71.354;2024-03-02T07:59:36;6.30;;;1.60;;
81378;SDS011;70830;42.290;-71.354;2024-03-02T08:02:02;4.05;;;1.45;;
81378;SDS011;70830;42.290;-71.354;2024-03-02T08:04:28;5.40;;;3.20;;
81378;SDS011;70830;42.290;-71.354;2024-03-02T08:06:54;4.70;;;2.80;;
81378;SDS011;70830;42.290;-71.354;2024-03-02T08:09:20;7.57;;;4.53;;
81378;SDS011;70830;42.290;-71.354;2024-03-02T08:11:46;7.85;;;4.82;;
81378;SDS011;70830;42.290;-71.354;2024-03-02T08:14:12;8.77;;;6.85;;
81378;SDS011;70830;42.290;-71.354;2024-03-02T08:16:38;5.65;;;2.25;;
81378;SDS011;70830;42.290;-71.354;2024-03-02T08:19:04;8.88;;;1.58;;
81378;SDS011;70830;42.290;-71.354;2024-03-02T08:21:30;11.57;;;1.83;;
81378;SDS011;70830;42.290;-71.354;2024-03-02T08:23:57;2.38;;;1.25;;
81378;SDS011;70830;42.290;-71.354;2024-03-02T08:26:26;3.28;;;1.50;;
81378;SDS011;70830;42.290;-71.354;2024-03-02T08:28:54;7.32;;;1.48;;
81378;SDS011;70830;42.290;-71.354;2024-03-02T08:31:21;4.95;;;1.48;;
81378;SDS011;70830;42.290;-71.354;2024-03-02T08:33:47;5.93;;;2.65;;
81378;SDS011;70830;42.290;-71.354;2024-03-02T08:36:12;2.97;;;1.33;;
81378;SDS011;70830;42.290;-71.354;2024-03-02T08:38:38;5.10;;;1.38;;
81378;SDS011;70830;42.290;-71.354;2024-03-02T08:41:05;4.88;;;3.25;;
81378;SDS011;70830;42.290;-71.354;2024-03-02T08:43:32;5.03;;;4.10;;
81378;SDS011;70830;42.290;-71.354;2024-03-02T08:45:58;11.05;;;5.00;;
81378;SDS011;70830;42.290;-71.354;2024-03-02T08:48:24;7.00;;;4.60;;
81378;SDS011;70830;42.290;-71.354;2024-03-02T08:50:50;5.60;;;5.20;;
81378;SDS011;70830;42.290;-71.354;2024-03-02T08:53:16;6.10;;;4.03;;
81378;SDS011;70830;42.290;-71.354;2024-03-02T08:55:45;7.25;;;6.13;;
81378;SDS011;70830;42.290;-71.354;2024-03-02T08:58:11;5.55;;;1.88;;
81378;SDS011;70830;42.290;-71.354;2024-03-02T09:00:37;2.00;;;1.25;;
81378;SDS011;70830;42.290;-71.354;2024-03-02T09:03:03;3.60;;;1.30;;
81378;SDS011;70830;42.290;-71.354;2024-03-02T09:05:29;4.78;;;1.45;;
81378;SDS011;70830;42.290;-71.354;2024-03-02T09:07:55;4.57;;;1.38;;
81378;SDS011;70830;42.290;-71.354;2024-03-02T09:10:24;4.53;;;1.40;;
81378;SDS011;70830;42.290;-71.354;2024-03-02T09:12:52;4.28;;;3.28;;
81378;SDS011;70830;42.290;-71.354;2024-03-02T09:15:18;4.35;;;3.88;;
81378;SDS011;70830;42.290;-71.354;2024-03-02T09:17:44;7.15;;;4.90;;
81378;SDS011;70830;42.290;-71.354;2024-03-02T09:20:10;4.80;;;3.45;;
81378;SDS011;70830;42.290;-71.354;2024-03-02T09:22:36;3.90;;;3.53;;
81378;SDS011;70830;42.290;-71.354;2024-03-02T09:25:02;5.22;;;4.00;;
81378;SDS011;70830;42.290;-71.354;2024-03-02T09:27:28;5.00;;;3.80;;
81378;SDS011;70830;42.290;-71.354;2024-03-02T09:29:57;6.93;;;3.58;;
81378;SDS011;70830;42.290;-71.354;2024-03-02T09:32:23;4.43;;;2.72;;
81378;SDS011;70830;42.290;-71.354;2024-03-02T09:34:49;5.32;;;3.58;;
81378;SDS011;70830;42.290;-71.354;2024-03-02T09:37:15;3.65;;;3.33;;
81378;SDS011;70830;42.290;-71.354;2024-03-02T09:39:43;6.47;;;3.60;;
81378;SDS011;70830;42.290;-71.354;2024-03-02T09:42:10;3.50;;;3.20;;
81378;SDS011;70830;42.290;-71.354;2024-03-02T09:44:37;4.03;;;3.70;;
81378;SDS011;70830;42.290;-71.354;2024-03-02T09:47:03;10.70;;;4.18;;
81378;SDS011;70830;42.290;-71.354;2024-03-02T09:49:30;4.97;;;3.80;;
81378;SDS011;70830;42.290;-71.354;2024-03-02T09:51:56;4.90;;;3.53;;
81378;SDS011;70830;42.290;-71.354;2024-03-02T09:54:22;6.13;;;3.10;;
81378;SDS011;70830;42.290;-71.354;2024-03-02T09:56:49;3.83;;;3.47;;
81378;SDS011;70830;42.290;-71.354;2024-03-02T09:59:16;7.65;;;3.92;;
81378;SDS011;70830;42.290;-71.354;2024-03-02T10:02:05;3.55;;;3.25;;
81378;SDS011;70830;42.290;-71.354;2024-03-02T10:04:32;3.90;;;3.55;;
81378;SDS011;70830;42.290;-71.354;2024-03-02T10:09:47;5.43;;;3.60;;
81378;SDS011;70830;42.290;-71.354;2024-03-02T10:12:17;5.32;;;3.47;;
81378;SDS011;70830;42.290;-71.354;2024-03-02T10:14:44;7.43;;;4.10;;
81378;SDS011;70830;42.290;-71.354;2024-03-02T10:17:11;6.32;;;3.60;;
81378;SDS011;70830;42.290;-71.354;2024-03-02T10:19:39;4.55;;;1.30;;
81378;SDS011;70830;42.290;-71.354;2024-03-02T10:22:05;3.05;;;1.05;;
81378;SDS011;70830;42.290;-71.354;2024-03-02T10:24:37;4.55;;;1.25;;
81378;SDS011;70830;42.290;-71.354;2024-03-02T10:27:14;7.28;;;1.38;;
81378;SDS011;70830;42.290;-71.354;2024-03-02T10:29:41;12.52;;;1.27;;
81378;SDS011;70830;42.290;-71.354;2024-03-02T10:32:09;2.83;;;1.33;;
81378;SDS011;70830;42.290;-71.354;2024-03-02T10:34:42;5.88;;;1.60;;
81378;SDS011;70830;42.290;-71.354;2024-03-02T10:37:10;3.17;;;1.45;;
81378;SDS011;70830;42.290;-71.354;2024-03-02T10:39:37;5.13;;;1.40;;
81378;SDS011;70830;42.290;-71.354;2024-03-02T10:42:06;4.45;;;4.05;;
81378;SDS011;70830;42.290;-71.354;2024-03-02T10:44:32;8.95;;;4.43;;
81378;SDS011;70830;42.290;-71.354;2024-03-02T10:47:00;4.75;;;4.00;;
81378;SDS011;70830;42.290;-71.354;2024-03-02T10:49:32;5.88;;;3.70;;
81378;SDS011;70830;42.290;-71.354;2024-03-02T10:51:58;4.80;;;3.88;;
81378;SDS011;70830;42.290;-71.354;2024-03-02T10:54:25;4.63;;;4.03;;
81378;SDS011;70830;42.290;-71.354;2024-03-02T10:56:54;4.13;;;3.70;;
81378;SDS011;70830;42.290;-71.354;2024-03-02T10:59:27;5.07;;;4.03;;
81378;SDS011;70830;42.290;-71.354;2024-03-02T11:02:01;6.07;;;3.20;;
81378;SDS011;70830;42.290;-71.354;2024-03-02T11:04:29;7.55;;;4.35;;
81378;SDS011;70830;42.290;-71.354;2024-03-02T11:07:04;5.63;;;3.60;;
81378;SDS011;70830;42.290;-71.354;2024-03-02T11:09:33;5.65;;;1.90;;
81378;SDS011;70830;42.290;-71.354;2024-03-02T11:12:02;3.20;;;1.67;;
81378;SDS011;70830;42.290;-71.354;2024-03-02T11:14:32;4.55;;;2.20;;
81378;SDS011;70830;42.290;-71.354;2024-03-02T11:17:00;5.28;;;1.63;;
81378;SDS011;70830;42.290;-71.354;2024-03-02T11:19:28;7.15;;;1.85;;
81378;SDS011;70830;42.290;-71.354;2024-03-02T11:21:56;11.18;;;3.72;;
81378;SDS011;70830;42.290;-71.354;2024-03-02T11:26:53;6.63;;;4.15;;
81378;SDS011;70830;42.290;-71.354;2024-03-02T11:32:20;7.28;;;4.00;;
81378;SDS011;70830;42.290;-71.354;2024-03-02T11:34:49;4.82;;;3.85;;
81378;SDS011;70830;42.290;-71.354;2024-03-02T11:37:19;5.07;;;3.65;;
81378;SDS011;70830;42.290;-71.354;2024-03-02T11:39:46;4.10;;;3.70;;
81378;SDS011;70830;42.290;-71.354;2024-03-02T11:42:14;4.53;;;3.55;;
81378;SDS011;70830;42.290;-71.354;2024-03-02T11:44:47;4.95;;;3.80;;
81378;SDS011;70830;42.290;-71.354;2024-03-02T11:47:16;6.45;;;3.95;;
81378;SDS011;70830;42.290;-71.354;2024-03-02T11:49:49;6.07;;;3.97;;
81378;SDS011;70830;42.290;-71.354;2024-03-02T11:52:19;4.72;;;3.42;;
81378;SDS011;70830;42.290;-71.354;2024-03-02T11:54:47;6.75;;;3.50;;
81378;SDS011;70830;42.290;-71.354;2024-03-02T11:57:20;4.88;;;3.42;;
81378;SDS011;70830;42.290;-71.354;2024-03-02T12:02:15;3.85;;;3.55;;
81378;SDS011;70830;42.290;-71.354;2024-03-02T12:04:45;6.38;;;4.00;;
81378;SDS011;70830;42.290;-71.354;2024-03-02T12:07:19;4.93;;;1.08;;
81378;SDS011;70830;42.290;-71.354;2024-03-02T12:09:58;4.57;;;1.20;;
81378;SDS011;70830;42.290;-71.354;2024-03-02T12:12:26;5.55;;;1.30;;
81378;SDS011;70830;42.290;-71.354;2024-03-02T12:14:53;2.78;;;1.17;;
81378;SDS011;70830;42.290;-71.354;2024-03-02T12:17:21;5.43;;;1.23;;
81378;SDS011;70830;42.290;-71.354;2024-03-02T12:19:47;5.97;;;1.45;;
81378;SDS011;70830;42.290;-71.354;2024-03-02T12:22:14;5.60;;;0.93;;
81378;SDS011;70830;42.290;-71.354;2024-03-02T12:24:43;5.60;;;1.63;;
81378;SDS011;70830;42.290;-71.354;2024-03-02T12:27:10;4.07;;;1.50;;
81378;SDS011;70830;42.290;-71.354;2024-03-02T12:29:38;5.53;;;1.17;;
81378;SDS011;70830;42.290;-71.354;2024-03-02T12:32:04;3.63;;;1.48;;
81378;SDS011;70830;42.290;-71.354;2024-03-02T12:34:31;7.50;;;1.30;;
81378;SDS011;70830;42.290;-71.354;2024-03-02T12:36:57;3.30;;;1.20;;
81378;SDS011;70830;42.290;-71.354;2024-03-02T12:39:23;7.32;;;1.88;;
81378;SDS011;70830;42.290;-71.354;2024-03-02T12:41:50;3.45;;;2.00;;
81378;SDS011;70830;42.290;-71.354;2024-03-02T12:44:20;4.22;;;1.92;;
81378;SDS011;70830;42.290;-71.354;2024-03-02T12:46:46;9.65;;;1.60;;
81378;SDS011;70830;42.290;-71.354;2024-03-02T12:49:13;7.90;;;2.63;;
81378;SDS011;70830;42.290;-71.354;2024-03-02T12:51:43;7.28;;;2.50;;
81378;SDS011;70830;42.290;-71.354;2024-03-02T12:54:12;2.08;;;1.10;;
81378;SDS011;70830;42.290;-71.354;2024-03-02T12:56:38;3.45;;;1.08;;
81378;SDS011;70830;42.290;-71.354;2024-03-02T12:59:04;7.88;;;3.40;;
81378;SDS011;70830;42.290;-71.354;2024-03-02T13:01:30;6.78;;;1.52;;
81378;SDS011;70830;42.290;-71.354;2024-03-02T13:03:57;3.30;;;1.92;;
81378;SDS011;70830;42.290;-71.354;2024-03-02T13:06:24;6.80;;;5.65;;
81378;SDS011;70830;42.290;-71.354;2024-03-02T13:08:54;5.80;;;2.40;;
81378;SDS011;70830;42.290;-71.354;2024-03-02T13:11:21;6.30;;;1.27;;
81378;SDS011;70830;42.290;-71.354;2024-03-02T13:13:51;2.22;;;1.00;;
81378;SDS011;70830;42.290;-71.354;2024-03-02T13:16:17;8.55;;;1.40;;
81378;SDS011;70830;42.290;-71.354;2024-03-02T13:18:45;4.15;;;2.97;;
81378;SDS011;70830;42.290;-71.354;2024-03-02T13:21:11;3.53;;;1.40;;
81378;SDS011;70830;42.290;-71.354;2024-03-02T13:23:37;6.35;;;1.83;;
81378;SDS011;70830;42.290;-71.354;2024-03-02T13:26:03;5.65;;;1.88;;
81378;SDS011;70830;42.290;-71.354;2024-03-02T13:28:29;1.92;;;1.48;;
81378;SDS011;70830;42.290;-71.354;2024-03-02T13:30:55;5.10;;;3.67;;
81378;SDS011;70830;42.290;-71.354;2024-03-02T13:33:21;3.33;;;1.02;;
81378;SDS011;70830;42.290;-71.354;2024-03-02T13:35:50;3.83;;;1.00;;
81378;SDS011;70830;42.290;-71.354;2024-03-02T13:38:20;4.43;;;1.25;;
81378;SDS011;70830;42.290;-71.354;2024-03-02T13:40:46;4.43;;;1.13;;
81378;SDS011;70830;42.290;-71.354;2024-03-02T13:43:17;2.92;;;1.10;;
81378;SDS011;70830;42.290;-71.354;2024-03-02T13:45:44;4.40;;;1.25;;
81378;SDS011;70830;42.290;-71.354;2024-03-02T13:48:10;2.53;;;2.08;;
81378;SDS011;70830;42.290;-71.354;2024-03-02T13:50:36;3.33;;;1.85;;
81378;SDS011;70830;42.290;-71.354;2024-03-02T13:53:02;9.02;;;1.58;;
81378;SDS011;70830;42.290;-71.354;2024-03-02T13:55:28;4.97;;;1.25;;
81378;SDS011;70830;42.290;-71.354;2024-03-02T13:57:54;3.72;;;1.65;;
81378;SDS011;70830;42.290;-71.354;2024-03-02T14:00:20;11.15;;;2.42;;
81378;SDS011;70830;42.290;-71.354;2024-03-02T14:02:46;4.80;;;1.88;;
81378;SDS011;70830;42.290;-71.354;2024-03-02T14:05:14;6.40;;;1.90;;
81378;SDS011;70830;42.290;-71.354;2024-03-02T14:07:41;6.75;;;4.25;;
81378;SDS011;70830;42.290;-71.354;2024-03-02T14:10:07;7.15;;;1.90;;
81378;SDS011;70830;42.290;-71.354;2024-03-02T14:12:34;7.90;;;4.53;;
81378;SDS011;70830;42.290;-71.354;2024-03-02T14:14:59;5.38;;;3.97;;
81378;SDS011;70830;42.290;-71.354;2024-03-02T14:17:27;6.53;;;4.13;;
81378;SDS011;70830;42.290;-71.354;2024-03-02T14:19:54;7.28;;;4.88;;
81378;SDS011;70830;42.290;-71.354;2024-03-02T14:22:20;5.80;;;4.10;;
81378;SDS011;70830;42.290;-71.354;2024-03-02T14:24:46;8.88;;;4.00;;
81378;SDS011;70830;42.290;-71.354;2024-03-02T14:27:13;8.82;;;4.22;;
81378;SDS011;70830;42.290;-71.354;2024-03-02T14:29:39;5.63;;;3.80;;
81378;SDS011;70830;42.290;-71.354;2024-03-02T14:32:06;5.82;;;3.80;;
81378;SDS011;70830;42.290;-71.354;2024-03-02T14:34:32;6.05;;;3.90;;
81378;SDS011;70830;42.290;-71.354;2024-03-02T14:36:58;5.68;;;3.97;;
81378;SDS011;70830;42.290;-71.354;2024-03-02T14:39:25;8.68;;;4.03;;